sensor_id;sensor_type;location;lat;lon;timestamp;pressure;altitude;pressure_sealevel;temperature;humidity
9899;BME280;4988;49.238;6.698;2023-05-10T00:02:15;98592.81;;;12.87;100.00
9899;BME280;4988;49.238;6.698;2023-05-10T00:04:41;98586.41;;;12.90;100.00
9899;BME280;4988;49.238;6.698;2023-05-10T00:07:06;98589.78;;;12.79;100.00
9899;BME280;4988;49.238;6.698;2023-05-10T00:09:31;98588.25;;;12.75;100.00
9899;BME280;4988;49.238;6.698;2023-05-10T00:11:57;98590.16;;;12.73;100.00
9899;BME280;4988;49.238;6.698;2023-05-10T00:14:23;98580.53;;;12.70;100.00
9899;BME280;4988;49.238;6.698;2023-05-10T00:16:48;98579.59;;;12.71;100.00
9899;BME280;4988;49.238;6.698;2023-05-10T00:19:14;98580.72;;;12.67;100.00
9899;BME280;4988;49.238;6.698;2023-05-10T00:21:39;98585.41;;;12.64;100.00
9899;BME280;4988;49.238;6.698;2023-05-10T00:24:04;98582.94;;;12.61;100.00
9899;BME280;4988;49.238;6.698;2023-05-10T00:26:30;98582.09;;;12.60;100.00
9899;BME280;4988;49.238;6.698;2023-05-10T00:28:55;98570.53;;;12.60;100.00
9899;BME280;4988;49.238;6.698;2023-05-10T00:31:21;98561.59;;;12.61;100.00
9899;BME280;4988;49.238;6.698;2023-05-10T00:33:47;98555.06;;;12.65;100.00
9899;BME280;4988;49.238;6.698;2023-05-10T00:36:12;98561.38;;;12.64;100.00
9899;BME280;4988;49.238;6.698;2023-05-10T00:38:38;98569.38;;;12.64;100.00
9899;BME280;4988;49.238;6.698;2023-05-10T00:41:03;98565.97;;;12.62;100.00
9899;BME280;4988;49.238;6.698;2023-05-10T00:43:28;98574.47;;;12.54;100.00
9899;BME280;4988;49.238;6.698;2023-05-10T00:45:54;98581.50;;;12.55;100.00
9899;BME280;4988;49.238;6.698;2023-05-10T00:48:19;98579.59;;;12.57;100.00
9899;BME280;4988;49.238;6.698;2023-05-10T00:50:45;98576.66;;;12.62;100.00
9899;BME280;4988;49.238;6.698;2023-05-10T00:53:11;98577.78;;;12.58;100.00
9899;BME280;4988;49.238;6.698;2023-05-10T00:55:37;98578.94;;;12.53;100.00
9899;BME280;4988;49.238;6.698;2023-05-10T00:58:03;98592.28;;;12.53;100.00
9899;BME280;4988;49.238;6.698;2023-05-10T01:00:28;98587.81;;;12.54;100.00
9899;BME280;4988;49.238;6.698;2023-05-10T01:02:54;98585.41;;;12.64;100.00
9899;BME280;4988;49.238;6.698;2023-05-10T01:05:20;98591.91;;;12.60;100.00
9899;BME280;4988;49.238;6.698;2023-05-10T01:07:45;98583.22;;;12.56;100.00
9899;BME280;4988;49.238;6.698;2023-05-10T01:10:10;98591.34;;;12.54;100.00
9899;BME280;4988;49.238;6.698;2023-05-10T01:12:38;98588.78;;;12.53;100.00
9899;BME280;4988;49.238;6.698;2023-05-10T01:15:06;98593.06;;;12.55;100.00
9899;BME280;4988;49.238;6.698;2023-05-10T01:17:34;98585.63;;;12.61;100.00
9899;BME280;4988;49.238;6.698;2023-05-10T01:20:01;98587.34;;;12.62;100.00
9899;BME280;4988;49.238;6.698;2023-05-10T01:35:57;98582.72;;;12.78;100.00
9899;BME280;4988;49.238;6.698;2023-05-10T01:38:44;98582.66;;;12.65;100.00
9899;BME280;4988;49.238;6.698;2023-05-10T01:43:54;98579.69;;;12.70;100.00
9899;BME280;4988;49.238;6.698;2023-05-10T01:46:35;98576.41;;;12.79;100.00
9899;BME280;4988;49.238;6.698;2023-05-10T01:49:29;98579.69;;;12.70;100.00
9899;BME280;4988;49.238;6.698;2023-05-10T01:52:00;98579.50;;;12.59;100.00
9899;BME280;4988;49.238;6.698;2023-05-10T01:54:29;98591.13;;;12.58;100.00
9899;BME280;4988;49.238;6.698;2023-05-10T01:57:00;98588.00;;;12.51;100.00
9899;BME280;4988;49.238;6.698;2023-05-10T01:59:33;98591.44;;;12.53;100.00
9899;BME280;4988;49.238;6.698;2023-05-10T02:02:02;98587.06;;;12.52;100.00
9899;BME280;4988;49.238;6.698;2023-05-10T02:04:29;98591.44;;;12.53;100.00
9899;BME280;4988;49.238;6.698;2023-05-10T02:06:56;98594.97;;;12.53;100.00
9899;BME280;4988;49.238;6.698;2023-05-10T02:09:23;98594.47;;;12.61;100.00
9899;BME280;4988;49.238;6.698;2023-05-10T02:11:51;98595.25;;;12.63;100.00
9899;BME280;4988;49.238;6.698;2023-05-10T02:14:18;98596.84;;;12.51;100.00
9899;BME280;4988;49.238;6.698;2023-05-10T02:16:44;98604.19;;;12.62;100.00
9899;BME280;4988;49.238;6.698;2023-05-10T02:19:11;98595.63;;;12.57;100.00
9899;BME280;4988;49.238;6.698;2023-05-10T02:21:39;98601.75;;;12.59;100.00
9899;BME280;4988;49.238;6.698;2023-05-10T02:24:07;98597.25;;;12.60;100.00
9899;BME280;4988;49.238;6.698;2023-05-10T02:26:35;98597.53;;;12.55;100.00
9899;BME280;4988;49.238;6.698;2023-05-10T02:29:04;98600.59;;;12.49;100.00
9899;BME280;4988;49.238;6.698;2023-05-10T02:31:33;98604.31;;;12.46;100.00
9899;BME280;4988;49.238;6.698;2023-05-10T02:34:00;98604.31;;;12.46;100.00
9899;BME280;4988;49.238;6.698;2023-05-10T02:36:27;98600.50;;;12.50;100.00
9899;BME280;4988;49.238;6.698;2023-05-10T02:38:53;98609.94;;;12.56;100.00
9899;BME280;4988;49.238;6.698;2023-05-10T02:41:20;98606.59;;;12.67;100.00
9899;BME280;4988;49.238;6.698;2023-05-10T02:43:50;98606.00;;;12.76;100.00
9899;BME280;4988;49.238;6.698;2023-05-10T02:46:16;98607.13;;;12.86;100.00
9899;BME280;4988;49.238;6.698;2023-05-10T02:48:42;98601.91;;;12.70;100.00
9899;BME280;4988;49.238;6.698;2023-05-10T02:51:07;98597.34;;;12.58;100.00
9899;BME280;4988;49.238;6.698;2023-05-10T02:53:36;98597.44;;;12.57;100.00
9899;BME280;4988;49.238;6.698;2023-05-10T02:56:20;98602.03;;;12.54;100.00
9899;BME280;4988;49.238;6.698;2023-05-10T02:58:48;98602.41;;;12.48;100.00
9899;BME280;4988;49.238;6.698;2023-05-10T03:01:13;98604.31;;;12.46;100.00
9899;BME280;4988;49.238;6.698;2023-05-10T03:03:39;98616.13;;;12.42;100.00
9899;BME280;4988;49.238;6.698;2023-05-10T03:06:04;98615.25;;;12.42;100.00
9899;BME280;4988;49.238;6.698;2023-05-10T03:08:30;98613.84;;;12.36;100.00
9899;BME280;4988;49.238;6.698;2023-05-10T03:13:53;98606.31;;;12.43;100.00
9899;BME280;4988;49.238;6.698;2023-05-10T03:16:35;98612.91;;;12.37;100.00
9899;BME280;4988;49.238;6.698;2023-05-10T03:19:22;98618.03;;;12.40;100.00
9899;BME280;4988;49.238;6.698;2023-05-10T03:21:51;98615.19;;;12.43;100.00
9899;BME280;4988;49.238;6.698;2023-05-10T03:24:20;98609.09;;;12.55;100.00
9899;BME280;4988;49.238;6.698;2023-05-10T03:26:47;98606.03;;;12.62;100.00
9899;BME280;4988;49.238;6.698;2023-05-10T03:29:13;98615.53;;;12.66;100.00
9899;BME280;4988;49.238;6.698;2023-05-10T03:31:40;98611.47;;;12.60;100.00
9899;BME280;4988;49.238;6.698;2023-05-10T03:34:05;98606.69;;;12.65;100.00
9899;BME280;4988;49.238;6.698;2023-05-10T03:36:32;98607.16;;;12.72;100.00
9899;BME280;4988;49.238;6.698;2023-05-10T03:38:57;98606.97;;;12.61;100.00
9899;BME280;4988;49.238;6.698;2023-05-10T03:41:22;98615.25;;;12.56;100.00
9899;BME280;4988;49.238;6.698;2023-05-10T03:43:48;98617.75;;;12.45;100.00
9899;BME280;4988;49.238;6.698;2023-05-10T03:46:13;98615.19;;;12.43;100.00
9899;BME280;4988;49.238;6.698;2023-05-10T03:48:38;98617.19;;;12.39;100.00
9899;BME280;4988;49.238;6.698;2023-05-10T03:51:04;98622.53;;;12.39;100.00
9899;BME280;4988;49.238;6.698;2023-05-10T03:53:29;98614.81;;;12.49;100.00
9899;BME280;4988;49.238;6.698;2023-05-10T03:55:55;98614.03;;;12.47;100.00
9899;BME280;4988;49.238;6.698;2023-05-10T03:58:20;98619.94;;;12.52;100.00
9899;BME280;4988;49.238;6.698;2023-05-10T04:00:46;98626.03;;;12.40;100.00
9899;BME280;4988;49.238;6.698;2023-05-10T04:03:12;98626.31;;;12.35;100.00
9899;BME280;4988;49.238;6.698;2023-05-10T04:05:38;98629.97;;;12.34;100.00
9899;BME280;4988;49.238;6.698;2023-05-10T04:08:03;98639.22;;;12.43;100.00
9899;BME280;4988;49.238;6.698;2023-05-10T04:10:29;98629.88;;;12.36;100.00
9899;BME280;4988;49.238;6.698;2023-05-10T04:12:55;98633.38;;;12.36;100.00
9899;BME280;4988;49.238;6.698;2023-05-10T04:15:20;98632.41;;;12.23;100.00
9899;BME280;4988;49.238;6.698;2023-05-10T04:17:46;98637.38;;;12.15;100.00
9899;BME280;4988;49.238;6.698;2023-05-10T04:20:11;98634.03;;;12.11;100.00
9899;BME280;4988;49.238;6.698;2023-05-10T04:22:37;98639.66;;;12.06;100.00
9899;BME280;4988;49.238;6.698;2023-05-10T04:25:03;98647.75;;;12.05;100.00
9899;BME280;4988;49.238;6.698;2023-05-10T04:27:28;98648.88;;;12.01;100.00
9899;BME280;4988;49.238;6.698;2023-05-10T04:29:54;98654.03;;;12.04;100.00
9899;BME280;4988;49.238;6.698;2023-05-10T04:32:19;98650.59;;;12.02;100.00
9899;BME280;4988;49.238;6.698;2023-05-10T04:34:45;98650.19;;;11.94;100.00
9899;BME280;4988;49.238;6.698;2023-05-10T04:37:10;98650.19;;;11.94;100.00
9899;BME280;4988;49.238;6.698;2023-05-10T04:39:36;98646.63;;;11.93;100.00
9899;BME280;4988;49.238;6.698;2023-05-10T04:42:02;98649.56;;;11.88;100.00
9899;BME280;4988;49.238;6.698;2023-05-10T04:44:28;98645.69;;;11.94;100.00
9899;BME280;4988;49.238;6.698;2023-05-10T04:46:54;98647.34;;;11.97;100.00
9899;BME280;4988;49.238;6.698;2023-05-10T04:49:19;98651.88;;;11.95;100.00
9899;BME280;4988;49.238;6.698;2023-05-10T04:51:45;98666.00;;;11.97;100.00
9899;BME280;4988;49.238;6.698;2023-05-10T04:54:10;98669.47;;;11.99;100.00
9899;BME280;4988;49.238;6.698;2023-05-10T04:56:35;98674.59;;;12.02;100.00
9899;BME280;4988;49.238;6.698;2023-05-10T04:59:01;98677.84;;;12.07;100.00
9899;BME280;4988;49.238;6.698;2023-05-10T05:01:26;98679.78;;;12.05;100.00
9899;BME280;4988;49.238;6.698;2023-05-10T05:03:51;98679.84;;;12.03;100.00
9899;BME280;4988;49.238;6.698;2023-05-10T05:06:18;98684.75;;;11.95;100.00
9899;BME280;4988;49.238;6.698;2023-05-10T05:08:43;98692.53;;;12.00;100.00
9899;BME280;4988;49.238;6.698;2023-05-10T05:11:11;98686.31;;;11.99;100.00
9899;BME280;4988;49.238;6.698;2023-05-10T05:13:37;98688.03;;;12.00;100.00
9899;BME280;4988;49.238;6.698;2023-05-10T05:16:02;98689.09;;;11.98;100.00
9899;BME280;4988;49.238;6.698;2023-05-10T05:18:28;98690.94;;;11.96;100.00
9899;BME280;4988;49.238;6.698;2023-05-10T05:20:53;98695.19;;;12.00;100.00
9899;BME280;4988;49.238;6.698;2023-05-10T05:23:19;98700.06;;;12.07;100.00
9899;BME280;4988;49.238;6.698;2023-05-10T05:25:46;98692.31;;;12.03;100.00
9899;BME280;4988;49.238;6.698;2023-05-10T05:28:11;98695.94;;;12.02;100.00
9899;BME280;4988;49.238;6.698;2023-05-10T05:30:36;98704.53;;;12.07;100.00
9899;BME280;4988;49.238;6.698;2023-05-10T05:33:02;98703.34;;;11.97;100.00
9899;BME280;4988;49.238;6.698;2023-05-10T05:35:27;98707.84;;;11.96;100.00
9899;BME280;4988;49.238;6.698;2023-05-10T05:37:52;98709.72;;;11.94;100.00
9899;BME280;4988;49.238;6.698;2023-05-10T05:40:18;98707.31;;;11.89;100.00
9899;BME280;4988;49.238;6.698;2023-05-10T05:42:43;98708.75;;;11.95;100.00
9899;BME280;4988;49.238;6.698;2023-05-10T05:45:09;98715.88;;;11.95;100.00
9899;BME280;4988;49.238;6.698;2023-05-10T05:47:38;98716.59;;;11.98;100.00
9899;BME280;4988;49.238;6.698;2023-05-10T05:50:03;98720.22;;;11.97;100.00
9899;BME280;4988;49.238;6.698;2023-05-10T05:52:30;98715.66;;;11.99;100.00
9899;BME280;4988;49.238;6.698;2023-05-10T05:54:55;98718.56;;;11.95;100.00
9899;BME280;4988;49.238;6.698;2023-05-10T05:57:20;98728.22;;;11.97;100.00
9899;BME280;4988;49.238;6.698;2023-05-10T05:59:46;98722.38;;;11.90;100.00
9899;BME280;4988;49.238;6.698;2023-05-10T06:02:11;98733.97;;;11.89;100.00
9899;BME280;4988;49.238;6.698;2023-05-10T06:04:37;98734.84;;;11.90;100.00
9899;BME280;4988;49.238;6.698;2023-05-10T06:07:02;98743.59;;;11.92;100.00
9899;BME280;4988;49.238;6.698;2023-05-10T06:09:27;98739.31;;;11.89;100.00
9899;BME280;4988;49.238;6.698;2023-05-10T06:11:53;98740.19;;;11.90;100.00
9899;BME280;4988;49.238;6.698;2023-05-10T06:14:20;98739.84;;;11.80;100.00
9899;BME280;4988;49.238;6.698;2023-05-10T06:16:45;98733.66;;;11.80;100.00
9899;BME280;4988;49.238;6.698;2023-05-10T06:19:11;98737.94;;;11.82;100.00
9899;BME280;4988;49.238;6.698;2023-05-10T06:21:36;98745.00;;;11.83;100.00
9899;BME280;4988;49.238;6.698;2023-05-10T06:24:02;98742.53;;;11.80;100.00
9899;BME280;4988;49.238;6.698;2023-05-10T06:26:27;98749.47;;;11.83;100.00
9899;BME280;4988;49.238;6.698;2023-05-10T06:28:53;98746.38;;;11.90;100.00
9899;BME280;4988;49.238;6.698;2023-05-10T06:31:18;98748.25;;;11.88;100.00
9899;BME280;4988;49.238;6.698;2023-05-10T06:33:43;98743.78;;;11.89;100.00
9899;BME280;4988;49.238;6.698;2023-05-10T06:36:09;98739.31;;;11.89;100.00
9899;BME280;4988;49.238;6.698;2023-05-10T06:38:34;98741.28;;;12.02;100.00
9899;BME280;4988;49.238;6.698;2023-05-10T06:40:59;98749.63;;;12.12;100.00
9899;BME280;4988;49.238;6.698;2023-05-10T06:43:25;98759.19;;;12.16;100.00
9899;BME280;4988;49.238;6.698;2023-05-10T06:45:51;98752.44;;;12.25;100.00
9899;BME280;4988;49.238;6.698;2023-05-10T06:48:16;98761.56;;;12.20;100.00
9899;BME280;4988;49.238;6.698;2023-05-10T06:50:42;98746.78;;;12.29;100.00
9899;BME280;4988;49.238;6.698;2023-05-10T06:53:07;98751.78;;;12.35;100.00
9899;BME280;4988;49.238;6.698;2023-05-10T06:55:33;98754.84;;;12.44;100.00
9899;BME280;4988;49.238;6.698;2023-05-10T06:57:58;98757.41;;;12.45;100.00
9899;BME280;4988;49.238;6.698;2023-05-10T07:00:23;98756.31;;;12.49;100.00
9899;BME280;4988;49.238;6.698;2023-05-10T07:02:49;98755.66;;;12.60;100.00
9899;BME280;4988;49.238;6.698;2023-05-10T07:05:14;98752.69;;;12.65;100.00
9899;BME280;4988;49.238;6.698;2023-05-10T07:07:40;98755.56;;;12.62;100.00
9899;BME280;4988;49.238;6.698;2023-05-10T07:10:06;98752.31;;;12.57;100.00
9899;BME280;4988;49.238;6.698;2023-05-10T07:12:32;98752.88;;;12.62;100.00
9899;BME280;4988;49.238;6.698;2023-05-10T07:14:57;98765.09;;;12.66;100.00
9899;BME280;4988;49.238;6.698;2023-05-10T07:17:22;98758.78;;;12.52;100.00
9899;BME280;4988;49.238;6.698;2023-05-10T07:19:48;98762.88;;;12.58;100.00
9899;BME280;4988;49.238;6.698;2023-05-10T07:22:14;98759.75;;;12.66;100.00
9899;BME280;4988;49.238;6.698;2023-05-10T07:24:40;98759.38;;;12.72;100.00
9899;BME280;4988;49.238;6.698;2023-05-10T07:27:05;98756.53;;;12.75;100.00
9899;BME280;4988;49.238;6.698;2023-05-10T07:29:30;98761.47;;;12.67;100.00
9899;BME280;4988;49.238;6.698;2023-05-10T07:31:56;98766.25;;;12.76;100.00
9899;BME280;4988;49.238;6.698;2023-05-10T07:34:21;98764.84;;;12.85;100.00
9899;BME280;4988;49.238;6.698;2023-05-10T07:36:46;98771.97;;;12.84;100.00
9899;BME280;4988;49.238;6.698;2023-05-10T07:39:12;98781.81;;;12.84;100.00
9899;BME280;4988;49.238;6.698;2023-05-10T07:41:37;98770.25;;;12.69;100.00
9899;BME280;4988;49.238;6.698;2023-05-10T07:44:04;98764.53;;;12.75;100.00
9899;BME280;4988;49.238;6.698;2023-05-10T07:46:29;98773.31;;;12.63;100.00
9899;BME280;4988;49.238;6.698;2023-05-10T07:48:55;98773.66;;;12.71;100.00
9899;BME280;4988;49.238;6.698;2023-05-10T07:51:20;98785.81;;;12.77;100.00
9899;BME280;4988;49.238;6.698;2023-05-10T07:53:46;98780.28;;;12.94;100.00
9899;BME280;4988;49.238;6.698;2023-05-10T07:56:27;98788.03;;;13.13;97.50
9899;BME280;4988;49.238;6.698;2023-05-10T07:58:55;98764.31;;;13.36;95.57
9899;BME280;4988;49.238;6.698;2023-05-10T08:01:22;98776.00;;;13.21;94.55
9899;BME280;4988;49.238;6.698;2023-05-10T08:03:47;98782.97;;;13.38;95.95
9899;BME280;4988;49.238;6.698;2023-05-10T08:06:14;98779.41;;;13.37;95.42
9899;BME280;4988;49.238;6.698;2023-05-10T08:08:40;98779.50;;;13.35;93.86
9899;BME280;4988;49.238;6.698;2023-05-10T08:11:06;98781.72;;;13.43;96.55
9899;BME280;4988;49.238;6.698;2023-05-10T08:13:31;98782.47;;;13.31;93.68
9899;BME280;4988;49.238;6.698;2023-05-10T08:15:57;98798.78;;;13.12;95.32
9899;BME280;4988;49.238;6.698;2023-05-10T08:18:22;98799.47;;;12.86;96.08
9899;BME280;4988;49.238;6.698;2023-05-10T08:20:47;98791.53;;;12.70;96.63
9899;BME280;4988;49.238;6.698;2023-05-10T08:23:13;98805.31;;;12.48;97.49
9899;BME280;4988;49.238;6.698;2023-05-10T08:25:38;98808.59;;;12.37;94.37
9899;BME280;4988;49.238;6.698;2023-05-10T08:28:04;98806.75;;;12.54;91.82
9899;BME280;4988;49.238;6.698;2023-05-10T08:30:29;98803.81;;;12.73;91.32
9899;BME280;4988;49.238;6.698;2023-05-10T08:32:55;98816.53;;;12.84;91.71
9899;BME280;4988;49.238;6.698;2023-05-10T08:35:20;98815.97;;;12.93;92.23
9899;BME280;4988;49.238;6.698;2023-05-10T08:37:46;98814.91;;;12.96;88.67
9899;BME280;4988;49.238;6.698;2023-05-10T08:40:11;98806.25;;;13.21;87.78
9899;BME280;4988;49.238;6.698;2023-05-10T08:42:39;98812.75;;;13.17;85.30
9899;BME280;4988;49.238;6.698;2023-05-10T08:45:07;98821.72;;;13.45;87.59
9899;BME280;4988;49.238;6.698;2023-05-10T08:47:33;98823.09;;;13.79;86.28
9899;BME280;4988;49.238;6.698;2023-05-10T08:49:59;98820.09;;;13.98;82.78
9899;BME280;4988;49.238;6.698;2023-05-10T08:52:26;98817.72;;;13.94;81.81
9899;BME280;4988;49.238;6.698;2023-05-10T08:54:53;98823.22;;;14.32;83.98
9899;BME280;4988;49.238;6.698;2023-05-10T08:57:19;98816.16;;;14.31;81.21
9899;BME280;4988;49.238;6.698;2023-05-10T08:59:44;98811.88;;;14.42;80.89
9899;BME280;4988;49.238;6.698;2023-05-10T09:02:11;98820.22;;;14.37;81.02
9899;BME280;4988;49.238;6.698;2023-05-10T09:04:37;98825.59;;;14.37;81.88
9899;BME280;4988;49.238;6.698;2023-05-10T09:07:03;98829.09;;;13.97;79.97
9899;BME280;4988;49.238;6.698;2023-05-10T09:09:28;98823.34;;;13.62;78.93
9899;BME280;4988;49.238;6.698;2023-05-10T09:11:54;98830.81;;;13.42;80.94
9899;BME280;4988;49.238;6.698;2023-05-10T09:14:20;98837.16;;;13.25;81.74
9899;BME280;4988;49.238;6.698;2023-05-10T09:16:45;98841.47;;;13.28;81.82
9899;BME280;4988;49.238;6.698;2023-05-10T09:19:11;98846.25;;;13.23;83.08
9899;BME280;4988;49.238;6.698;2023-05-10T09:21:36;98846.44;;;13.19;82.81
9899;BME280;4988;49.238;6.698;2023-05-10T09:24:06;98848.63;;;13.13;81.76
9899;BME280;4988;49.238;6.698;2023-05-10T09:26:32;98848.16;;;13.21;81.96
9899;BME280;4988;49.238;6.698;2023-05-10T09:28:58;98847.41;;;13.62;82.39
9899;BME280;4988;49.238;6.698;2023-05-10T09:31:24;98845.16;;;13.97;80.77
9899;BME280;4988;49.238;6.698;2023-05-10T09:34:07;98851.69;;;14.21;78.69
9899;BME280;4988;49.238;6.698;2023-05-10T09:36:33;98839.94;;;14.36;75.87
9899;BME280;4988;49.238;6.698;2023-05-10T09:38:58;98847.91;;;14.51;77.10
9899;BME280;4988;49.238;6.698;2023-05-10T09:41:24;98845.03;;;14.54;75.73
9899;BME280;4988;49.238;6.698;2023-05-10T09:43:55;98843.47;;;14.37;77.51
9899;BME280;4988;49.238;6.698;2023-05-10T09:46:22;98847.78;;;14.39;77.69
9899;BME280;4988;49.238;6.698;2023-05-10T09:48:48;98860.78;;;14.18;78.42
9899;BME280;4988;49.238;6.698;2023-05-10T09:51:25;98858.91;;;14.06;78.44
9899;BME280;4988;49.238;6.698;2023-05-10T09:54:11;98865.31;;;14.03;79.78
9899;BME280;4988;49.238;6.698;2023-05-10T09:56:37;98864.31;;;14.04;80.21
9899;BME280;4988;49.238;6.698;2023-05-10T09:59:06;98875.66;;;13.80;79.60
9899;BME280;4988;49.238;6.698;2023-05-10T10:01:31;98869.72;;;13.90;79.20
9899;BME280;4988;49.238;6.698;2023-05-10T10:03:57;98874.94;;;13.64;80.62
9899;BME280;4988;49.238;6.698;2023-05-10T10:06:23;98878.66;;;13.47;81.21
9899;BME280;4988;49.238;6.698;2023-05-10T10:08:50;98880.75;;;13.42;79.20
9899;BME280;4988;49.238;6.698;2023-05-10T10:11:16;98875.09;;;13.32;80.54
9899;BME280;4988;49.238;6.698;2023-05-10T10:13:42;98874.81;;;13.37;79.28
9899;BME280;4988;49.238;6.698;2023-05-10T10:16:08;98877.00;;;13.30;79.72
9899;BME280;4988;49.238;6.698;2023-05-10T10:18:35;98877.47;;;13.22;81.15
9899;BME280;4988;49.238;6.698;2023-05-10T10:21:05;98867.63;;;13.08;78.38
9899;BME280;4988;49.238;6.698;2023-05-10T10:23:31;98883.44;;;12.97;79.52
9899;BME280;4988;49.238;6.698;2023-05-10T10:25:56;98881.72;;;12.96;80.68
9899;BME280;4988;49.238;6.698;2023-05-10T10:28:42;98884.56;;;12.93;81.75
9899;BME280;4988;49.238;6.698;2023-05-10T10:31:27;98885.56;;;13.06;82.58
9899;BME280;4988;49.238;6.698;2023-05-10T10:34:00;98874.56;;;12.96;80.52
9899;BME280;4988;49.238;6.698;2023-05-10T10:36:27;98881.00;;;13.23;82.16
9899;BME280;4988;49.238;6.698;2023-05-10T10:39:00;98880.66;;;13.43;80.11
9899;BME280;4988;49.238;6.698;2023-05-10T10:41:37;98873.59;;;13.57;78.28
9899;BME280;4988;49.238;6.698;2023-05-10T10:52:27;98858.75;;;13.80;72.59
9899;BME280;4988;49.238;6.698;2023-05-10T11:00:21;98860.97;;;14.15;71.30
9899;BME280;4988;49.238;6.698;2023-05-10T11:02:49;98851.41;;;14.66;72.65
9899;BME280;4988;49.238;6.698;2023-05-10T11:08:29;98854.16;;;15.30;70.02
9899;BME280;4988;49.238;6.698;2023-05-10T11:15:54;98843.91;;;15.61;65.80
9899;BME280;4988;49.238;6.698;2023-05-10T11:18:23;98845.41;;;15.65;62.70
9899;BME280;4988;49.238;6.698;2023-05-10T11:20:58;98842.75;;;15.39;62.68
9899;BME280;4988;49.238;6.698;2023-05-10T11:23:30;98855.41;;;15.50;66.44
9899;BME280;4988;49.238;6.698;2023-05-10T11:25:56;98841.13;;;15.63;65.08
9899;BME280;4988;49.238;6.698;2023-05-10T11:28:21;98840.22;;;15.75;66.35
9899;BME280;4988;49.238;6.698;2023-05-10T11:30:47;98846.75;;;15.97;66.62
9899;BME280;4988;49.238;6.698;2023-05-10T11:33:17;98831.53;;;15.71;60.42
9899;BME280;4988;49.238;6.698;2023-05-10T11:35:42;98846.16;;;15.54;61.74
9899;BME280;4988;49.238;6.698;2023-05-10T11:38:09;98858.84;;;15.14;66.07
9899;BME280;4988;49.238;6.698;2023-05-10T11:40:35;98851.34;;;15.19;64.89
9899;BME280;4988;49.238;6.698;2023-05-10T11:43:01;98845.03;;;15.20;64.44
9899;BME280;4988;49.238;6.698;2023-05-10T11:45:27;98849.66;;;15.43;64.99
9899;BME280;4988;49.238;6.698;2023-05-10T11:47:54;98858.75;;;15.28;63.40
9899;BME280;4988;49.238;6.698;2023-05-10T11:50:20;98852.09;;;15.59;65.60
9899;BME280;4988;49.238;6.698;2023-05-10T11:52:45;98855.50;;;15.74;64.01
9899;BME280;4988;49.238;6.698;2023-05-10T11:55:11;98851.25;;;15.46;63.94
9899;BME280;4988;49.238;6.698;2023-05-10T11:57:37;98846.91;;;15.69;65.65
9899;BME280;4988;49.238;6.698;2023-05-10T12:00:04;98854.84;;;15.84;64.47
9899;BME280;4988;49.238;6.698;2023-05-10T12:02:29;98850.66;;;15.80;63.18
9899;BME280;4988;49.238;6.698;2023-05-10T12:04:56;98845.19;;;15.68;62.28
9899;BME280;4988;49.238;6.698;2023-05-10T12:07:21;98851.34;;;15.57;62.48
9899;BME280;4988;49.238;6.698;2023-05-10T12:10:06;98846.53;;;15.50;60.82
9899;BME280;4988;49.238;6.698;2023-05-10T12:12:39;98852.72;;;15.50;60.94
9899;BME280;4988;49.238;6.698;2023-05-10T12:15:05;98852.81;;;15.62;60.75
9899;BME280;4988;49.238;6.698;2023-05-10T12:17:37;98850.13;;;15.74;62.44
9899;BME280;4988;49.238;6.698;2023-05-10T12:20:16;98855.25;;;15.77;63.32
9899;BME280;4988;49.238;6.698;2023-05-10T12:22:52;98848.72;;;15.69;60.32
9899;BME280;4988;49.238;6.698;2023-05-10T12:25:23;98843.91;;;15.61;62.36
9899;BME280;4988;49.238;6.698;2023-05-10T12:27:54;98843.66;;;15.77;60.91
9899;BME280;4988;49.238;6.698;2023-05-10T12:30:24;98838.06;;;15.93;63.46
9899;BME280;4988;49.238;6.698;2023-05-10T12:32:50;98838.72;;;15.97;59.12
9899;BME280;4988;49.238;6.698;2023-05-10T12:35:15;98846.00;;;15.95;61.60
9899;BME280;4988;49.238;6.698;2023-05-10T12:37:42;98842.53;;;16.05;59.97
9899;BME280;4988;49.238;6.698;2023-05-10T12:40:09;98842.72;;;16.15;61.82
9899;BME280;4988;49.238;6.698;2023-05-10T12:42:36;98840.00;;;15.91;59.01
9899;BME280;4988;49.238;6.698;2023-05-10T12:45:03;98839.38;;;15.74;58.22
9899;BME280;4988;49.238;6.698;2023-05-10T12:47:29;98838.88;;;15.69;59.46
9899;BME280;4988;49.238;6.698;2023-05-10T12:49:55;98843.13;;;15.85;58.83
9899;BME280;4988;49.238;6.698;2023-05-10T12:52:20;98841.41;;;15.84;58.77
9899;BME280;4988;49.238;6.698;2023-05-10T12:54:46;98844.66;;;15.63;58.60
9899;BME280;4988;49.238;6.698;2023-05-10T12:57:12;98841.69;;;15.55;58.47
9899;BME280;4988;49.238;6.698;2023-05-10T12:59:37;98849.06;;;15.64;59.47
9899;BME280;4988;49.238;6.698;2023-05-10T13:02:02;98851.41;;;15.69;59.88
9899;BME280;4988;49.238;6.698;2023-05-10T13:04:28;98849.81;;;15.66;60.67
9899;BME280;4988;49.238;6.698;2023-05-10T13:06:53;98849.50;;;15.58;60.68
9899;BME280;4988;49.238;6.698;2023-05-10T13:09:21;98853.25;;;15.55;60.51
9899;BME280;4988;49.238;6.698;2023-05-10T13:11:46;98851.84;;;15.63;62.65
9899;BME280;4988;49.238;6.698;2023-05-10T13:14:13;98858.50;;;15.57;62.46
9899;BME280;4988;49.238;6.698;2023-05-10T13:16:38;98849.66;;;15.43;61.39
9899;BME280;4988;49.238;6.698;2023-05-10T13:19:03;98852.09;;;15.47;63.04
9899;BME280;4988;49.238;6.698;2023-05-10T13:21:29;98844.75;;;15.62;64.14
9899;BME280;4988;49.238;6.698;2023-05-10T13:23:54;98847.84;;;15.94;65.59
9899;BME280;4988;49.238;6.698;2023-05-10T13:26:19;98833.16;;;16.35;61.86
9899;BME280;4988;49.238;6.698;2023-05-10T13:28:45;98834.13;;;16.59;61.25
9899;BME280;4988;49.238;6.698;2023-05-10T13:31:11;98834.31;;;16.91;59.64
9899;BME280;4988;49.238;6.698;2023-05-10T13:33:36;98839.88;;;17.01;57.42
9899;BME280;4988;49.238;6.698;2023-05-10T13:36:01;98834.03;;;16.71;56.58
9899;BME280;4988;49.238;6.698;2023-05-10T13:38:26;98831.09;;;16.63;58.35
9899;BME280;4988;49.238;6.698;2023-05-10T13:40:52;98826.69;;;16.62;58.35
9899;BME280;4988;49.238;6.698;2023-05-10T13:43:18;98825.44;;;16.55;57.01
9899;BME280;4988;49.238;6.698;2023-05-10T13:45:43;98826.66;;;16.51;59.06
9899;BME280;4988;49.238;6.698;2023-05-10T13:48:09;98834.41;;;16.67;59.08
9899;BME280;4988;49.238;6.698;2023-05-10T13:50:34;98817.81;;;16.84;59.22
9899;BME280;4988;49.238;6.698;2023-05-10T13:52:59;98821.22;;;16.75;59.74
9899;BME280;4988;49.238;6.698;2023-05-10T13:55:25;98823.91;;;16.75;59.77